createdAt,value
2019-05-19T00:00:12.639Z,15.00
2019-05-19T00:02:42.811Z,14.90
2019-05-19T00:05:14.783Z,15.00
2019-05-19T00:07:44.746Z,15.00
2019-05-19T00:10:16.917Z,15.00
2019-05-19T00:12:46.626Z,15.00
2019-05-19T00:15:16.741Z,15.00
2019-05-19T00:17:46.734Z,15.10
2019-05-19T00:20:16.693Z,15.20
2019-05-19T00:22:46.718Z,15.10
2019-05-19T00:25:16.830Z,15.20
2019-05-19T00:27:46.977Z,15.20
2019-05-19T00:30:17.254Z,15.30
2019-05-19T00:32:47.252Z,15.30
2019-05-19T00:35:17.419Z,15.30
2019-05-19T00:37:47.386Z,15.40
2019-05-19T00:40:17.499Z,15.40
2019-05-19T00:42:47.554Z,15.40
2019-05-19T00:45:18.158Z,15.40
2019-05-19T00:47:48.289Z,15.40
2019-05-19T00:50:18.843Z,15.40
2019-05-19T00:52:48.946Z,15.40
2019-05-19T00:55:19.011Z,15.40
2019-05-19T00:57:50.026Z,15.40
2019-05-19T01:00:22.683Z,15.40
2019-05-19T01:03:00.156Z,15.40
2019-05-19T01:05:30.125Z,15.40
2019-05-19T01:08:00.222Z,15.40
2019-05-19T01:10:30.316Z,15.40
2019-05-19T01:13:00.378Z,15.40
2019-05-19T01:15:30.482Z,15.40
2019-05-19T01:18:00.590Z,15.40
2019-05-19T01:20:30.890Z,15.40
2019-05-19T01:23:00.922Z,15.40
2019-05-19T01:25:30.955Z,15.40
2019-05-19T01:28:02.861Z,15.40
2019-05-19T01:30:33.529Z,15.40
2019-05-19T01:33:03.527Z,15.40
2019-05-19T01:35:33.633Z,15.40
2019-05-19T01:38:03.699Z,15.40
2019-05-19T01:40:33.728Z,15.40
2019-05-19T01:43:03.846Z,15.30
2019-05-19T01:45:33.949Z,15.30
2019-05-19T01:48:03.878Z,15.30
2019-05-19T01:50:33.978Z,15.30
2019-05-19T01:53:05.069Z,15.30
2019-05-19T01:55:35.050Z,15.40
2019-05-19T01:58:05.146Z,15.40
2019-05-19T02:00:35.146Z,15.40
2019-05-19T02:03:05.565Z,15.40
2019-05-19T02:05:35.630Z,15.40
2019-05-19T02:08:05.809Z,15.40
2019-05-19T02:10:35.841Z,15.30
2019-05-19T02:13:05.838Z,15.40
2019-05-19T02:15:35.942Z,15.40
2019-05-19T02:18:08.799Z,15.40
2019-05-19T02:20:38.766Z,15.30
2019-05-19T02:23:08.939Z,15.30
2019-05-19T02:25:40.142Z,15.30
2019-05-19T02:28:12.050Z,15.30
2019-05-19T02:30:42.129Z,15.20
2019-05-19T02:33:12.163Z,15.20
2019-05-19T02:35:42.166Z,15.10
2019-05-19T02:38:12.276Z,15.10
2019-05-19T02:40:45.310Z,15.00
2019-05-19T02:43:17.887Z,15.00
2019-05-19T02:45:52.180Z,15.00
2019-05-19T02:48:21.406Z,15.00
2019-05-19T02:50:53.118Z,15.00
2019-05-19T02:53:24.814Z,15.00
2019-05-19T02:55:55.986Z,15.00
2019-05-19T02:58:26.183Z,15.00
2019-05-19T03:00:56.147Z,15.10
2019-05-19T03:03:26.215Z,15.10
2019-05-19T03:05:56.190Z,15.10
2019-05-19T03:08:26.218Z,15.10
2019-05-19T03:10:56.299Z,15.00
2019-05-19T03:13:26.425Z,15.00
2019-05-19T03:15:56.479Z,14.90
2019-05-19T03:18:26.504Z,14.80
2019-05-19T03:21:10.462Z,14.70
2019-05-19T03:23:29.054Z,14.60
2019-05-19T03:25:59.121Z,14.50
2019-05-19T03:28:29.099Z,14.40
2019-05-19T03:31:09.347Z,14.40
2019-05-19T03:33:47.979Z,14.40
2019-05-19T03:36:18.018Z,14.30
2019-05-19T03:38:47.972Z,14.30
2019-05-19T03:41:17.995Z,14.30
2019-05-19T03:43:47.991Z,14.40
2019-05-19T03:46:19.699Z,14.30
2019-05-19T03:48:51.359Z,14.30
2019-05-19T03:51:30.928Z,14.30
2019-05-19T03:53:53.006Z,14.30
2019-05-19T03:56:23.030Z,14.30
2019-05-19T03:58:52.961Z,14.30
2019-05-19T04:01:24.159Z,14.30
2019-05-19T04:03:54.117Z,14.30
2019-05-19T04:06:24.036Z,14.00
2019-05-19T04:08:53.996Z,13.70
2019-05-19T04:11:25.016Z,13.80
2019-05-19T04:13:54.972Z,13.80
2019-05-19T04:16:25.027Z,13.90
2019-05-19T04:18:55.063Z,14.00
2019-05-19T04:21:25.061Z,14.00
2019-05-19T04:23:55.074Z,13.80
2019-05-19T04:26:25.160Z,13.70
2019-05-19T04:28:55.255Z,13.60
2019-05-19T04:31:25.277Z,13.60
2019-05-19T04:33:55.199Z,13.70
2019-05-19T04:36:25.234Z,13.80
2019-05-19T04:38:55.189Z,13.70
2019-05-19T04:41:25.271Z,13.70
2019-05-19T04:43:55.293Z,13.90
2019-05-19T04:46:25.227Z,13.90
2019-05-19T04:48:55.222Z,13.90
2019-05-19T04:51:25.141Z,13.90
2019-05-19T04:53:55.093Z,13.90
2019-05-19T04:56:25.017Z,13.90
2019-05-19T04:58:55.042Z,13.90
2019-05-19T05:01:25.151Z,14.00
2019-05-19T05:03:55.132Z,14.20
2019-05-19T05:06:29.887Z,14.20
2019-05-19T05:08:59.902Z,14.30
2019-05-19T05:11:29.895Z,14.30
2019-05-19T05:13:59.926Z,14.30
2019-05-19T05:16:30.017Z,14.10
2019-05-19T05:19:00.119Z,14.10
2019-05-19T05:21:30.122Z,14.10
2019-05-19T05:24:01.052Z,14.30
2019-05-19T05:26:31.120Z,14.30
2019-05-19T05:29:01.221Z,14.40
2019-05-19T05:31:32.190Z,14.40
2019-05-19T05:34:02.229Z,14.40
2019-05-19T05:36:32.250Z,14.40
2019-05-19T05:39:02.413Z,14.50
2019-05-19T05:41:37.166Z,14.50
2019-05-19T05:44:07.258Z,14.50
2019-05-19T05:46:37.177Z,14.60
2019-05-19T05:49:07.206Z,14.70
2019-05-19T05:51:38.658Z,14.70
2019-05-19T05:54:08.654Z,14.80
2019-05-19T05:56:38.665Z,14.80
2019-05-19T05:59:08.662Z,14.90
2019-05-19T06:01:38.628Z,15.00
2019-05-19T06:04:08.603Z,15.00
2019-05-19T06:06:38.569Z,15.00
2019-05-19T06:09:08.588Z,15.00
2019-05-19T06:11:38.510Z,15.00
2019-05-19T06:14:08.562Z,15.10
2019-05-19T06:16:38.490Z,15.10
2019-05-19T06:19:08.522Z,15.20
2019-05-19T06:21:38.454Z,15.10
2019-05-19T06:24:08.486Z,15.10
2019-05-19T06:26:38.558Z,15.10
2019-05-19T06:29:08.587Z,15.10
2019-05-19T06:31:38.599Z,15.10
2019-05-19T06:34:10.738Z,15.10
2019-05-19T06:36:40.790Z,15.20
2019-05-19T06:39:10.765Z,15.10
2019-05-19T06:41:40.818Z,15.20
2019-05-19T06:44:12.679Z,15.10
2019-05-19T06:46:44.330Z,15.10
2019-05-19T06:49:16.804Z,15.10
2019-05-19T06:51:47.746Z,15.10
2019-05-19T06:54:18.684Z,15.10
2019-05-19T06:56:48.730Z,15.10
2019-05-19T06:59:21.324Z,15.10
2019-05-19T07:01:51.485Z,15.10
2019-05-19T07:04:21.514Z,15.10
2019-05-19T07:06:51.761Z,15.00
2019-05-19T07:09:21.940Z,15.10
2019-05-19T07:11:52.015Z,15.10
2019-05-19T07:14:22.120Z,15.00
2019-05-19T07:16:52.188Z,15.10
2019-05-19T07:19:22.183Z,15.10
2019-05-19T07:21:52.221Z,15.10
2019-05-19T07:24:23.899Z,15.10
2019-05-19T07:26:55.196Z,15.10
2019-05-19T07:29:25.266Z,15.20
2019-05-19T07:31:55.206Z,15.10
2019-05-19T07:34:25.235Z,15.20
2019-05-19T07:36:55.342Z,15.20
2019-05-19T07:39:25.190Z,15.20
2019-05-19T07:41:55.147Z,15.10
2019-05-19T07:44:25.205Z,15.10
2019-05-19T07:47:02.051Z,15.20
2019-05-19T07:49:37.678Z,15.20
2019-05-19T07:52:07.725Z,15.20
2019-05-19T07:54:41.143Z,15.10
2019-05-19T07:57:11.183Z,15.10
2019-05-19T07:59:42.746Z,15.10
2019-05-19T08:02:12.826Z,15.10
2019-05-19T08:04:42.880Z,15.10
2019-05-19T08:07:26.089Z,15.20
2019-05-19T08:10:07.800Z,15.20
2019-05-19T08:12:52.854Z,15.20
2019-05-19T08:15:25.176Z,15.30
2019-05-19T08:17:54.978Z,15.30
2019-05-19T08:20:25.012Z,15.30
2019-05-19T08:22:57.357Z,15.40
2019-05-19T08:25:34.255Z,15.20
2019-05-19T08:28:08.638Z,15.30
2019-05-19T08:30:36.070Z,15.30
2019-05-19T08:33:06.219Z,15.30
2019-05-19T08:35:36.788Z,15.40
2019-05-19T08:38:07.936Z,15.50
2019-05-19T08:40:38.032Z,15.50
2019-05-19T08:43:08.132Z,15.50
2019-05-19T08:45:38.129Z,15.50
2019-05-19T08:48:08.228Z,15.30
2019-05-19T08:50:40.643Z,15.30
2019-05-19T08:53:17.686Z,15.40
2019-05-19T08:55:47.688Z,15.40
2019-05-19T08:58:19.137Z,15.30
2019-05-19T09:00:49.192Z,15.30
2019-05-19T09:03:40.622Z,15.40
2019-05-19T09:06:10.632Z,15.40
2019-05-19T09:08:40.798Z,15.30
2019-05-19T09:11:10.654Z,15.30
2019-05-19T09:13:40.673Z,15.40
2019-05-19T09:16:10.718Z,15.40
2019-05-19T09:18:40.865Z,15.40
2019-05-19T09:21:11.467Z,15.50
2019-05-19T09:23:41.485Z,15.60
2019-05-19T09:26:11.579Z,15.60
2019-05-19T09:28:41.648Z,15.60
2019-05-19T09:31:11.673Z,15.50
2019-05-19T09:33:41.698Z,15.60
2019-05-19T09:36:11.702Z,15.50
2019-05-19T09:38:41.743Z,15.50
2019-05-19T09:41:11.733Z,15.50
2019-05-19T09:43:52.807Z,15.50
2019-05-19T09:46:22.823Z,15.60
2019-05-19T09:49:11.117Z,15.60
2019-05-19T09:51:41.039Z,15.50
2019-05-19T09:54:11.151Z,15.50
2019-05-19T09:56:41.566Z,15.50
2019-05-19T09:59:11.586Z,15.50
2019-05-19T10:01:41.765Z,15.50
2019-05-19T10:04:11.778Z,15.40
2019-05-19T10:06:43.891Z,15.20
2019-05-19T10:09:16.890Z,15.10
2019-05-19T10:11:58.298Z,15.10
2019-05-19T10:14:28.273Z,15.10
2019-05-19T10:16:58.334Z,15.00
2019-05-19T10:19:28.438Z,15.10
2019-05-19T10:21:58.438Z,15.00
2019-05-19T10:24:28.546Z,15.10
2019-05-19T10:26:58.541Z,15.10
2019-05-19T10:29:28.635Z,15.10
2019-05-19T10:31:58.624Z,15.10
2019-05-19T10:34:28.554Z,15.00
2019-05-19T10:36:58.536Z,15.00
2019-05-19T10:39:28.531Z,14.90
2019-05-19T10:41:58.702Z,15.00
2019-05-19T10:44:28.834Z,15.10
2019-05-19T10:46:58.874Z,15.10
2019-05-19T10:49:28.958Z,15.20
2019-05-19T10:51:59.054Z,15.10
2019-05-19T10:54:29.106Z,15.10
2019-05-19T10:56:59.113Z,15.10
2019-05-19T10:59:29.214Z,15.10
2019-05-19T11:01:59.285Z,15.20
2019-05-19T11:04:29.463Z,15.10
2019-05-19T11:06:59.604Z,15.10
2019-05-19T11:09:29.770Z,15.20
2019-05-19T11:11:59.856Z,15.20
2019-05-19T11:14:29.901Z,15.20
2019-05-19T11:16:59.902Z,15.20
2019-05-19T11:19:29.910Z,15.30
2019-05-19T11:21:59.911Z,15.30
2019-05-19T11:24:30.010Z,15.40
2019-05-19T11:27:00.078Z,15.40
2019-05-19T11:29:30.046Z,15.50
2019-05-19T11:32:00.007Z,15.50
2019-05-19T11:34:30.007Z,15.50
2019-05-19T11:37:00.031Z,15.40
2019-05-19T11:39:30.130Z,15.40
2019-05-19T11:42:00.057Z,15.40
2019-05-19T11:44:30.022Z,15.50
2019-05-19T11:46:59.994Z,15.50
2019-05-19T11:49:30.035Z,15.50
2019-05-19T11:52:00.034Z,15.50
2019-05-19T11:54:30.006Z,15.60
2019-05-19T11:57:00.084Z,15.60
2019-05-19T11:59:30.016Z,15.60
2019-05-19T12:02:00.042Z,15.60
2019-05-19T12:04:30.111Z,15.50
2019-05-19T12:07:00.075Z,15.40
2019-05-19T12:09:30.079Z,15.50
2019-05-19T12:12:00.049Z,15.40
2019-05-19T12:14:31.211Z,15.50
2019-05-19T12:17:01.219Z,15.50
2019-05-19T12:19:32.329Z,15.50
2019-05-19T12:22:02.296Z,15.50
2019-05-19T12:24:33.305Z,15.40
2019-05-19T12:27:03.473Z,15.30
2019-05-19T12:29:33.435Z,15.40
2019-05-19T12:32:03.375Z,15.40
2019-05-19T12:34:33.385Z,15.50
2019-05-19T12:37:03.573Z,15.50
2019-05-19T12:39:33.487Z,15.50
2019-05-19T12:42:03.598Z,15.50
2019-05-19T12:44:33.705Z,15.50
2019-05-19T12:47:03.880Z,15.50
2019-05-19T12:49:33.962Z,15.40
2019-05-19T12:52:04.134Z,15.40
2019-05-19T12:54:34.099Z,15.40
2019-05-19T12:57:04.286Z,15.20
2019-05-19T12:59:34.286Z,15.20
2019-05-19T13:02:04.387Z,15.10
2019-05-19T13:04:34.482Z,15.10
2019-05-19T13:07:04.574Z,15.10
2019-05-19T13:09:34.499Z,15.00
2019-05-19T13:12:04.610Z,15.10
2019-05-19T13:14:34.670Z,15.20
2019-05-19T13:17:04.875Z,15.20
2019-05-19T13:19:34.907Z,15.20
2019-05-19T13:22:05.075Z,15.20
2019-05-19T13:24:35.174Z,15.20
2019-05-19T13:27:05.167Z,15.20
2019-05-19T13:29:35.197Z,15.30
2019-05-19T13:32:05.305Z,15.30
2019-05-19T13:34:35.305Z,15.30
2019-05-19T13:37:05.413Z,15.40
2019-05-19T13:39:36.497Z,15.40
2019-05-19T13:42:06.602Z,15.40
2019-05-19T13:44:36.570Z,15.40
2019-05-19T13:47:06.504Z,15.40
2019-05-19T13:49:36.629Z,15.40
2019-05-19T13:52:06.624Z,15.30
2019-05-19T13:54:37.932Z,15.40
2019-05-19T13:57:12.106Z,15.40
2019-05-19T13:59:39.858Z,15.40
2019-05-19T14:02:09.959Z,15.30
2019-05-19T14:04:40.897Z,15.30
2019-05-19T14:07:10.984Z,15.30
2019-05-19T14:09:41.031Z,15.40
2019-05-19T14:12:12.035Z,15.40
2019-05-19T14:14:42.070Z,15.40
2019-05-19T14:17:12.156Z,15.50
2019-05-19T14:19:42.274Z,15.50
2019-05-19T14:22:12.350Z,15.50
2019-05-19T14:24:42.319Z,15.60
2019-05-19T14:27:28.453Z,15.60
2019-05-19T14:29:44.807Z,15.70
2019-05-19T14:32:14.847Z,15.70
2019-05-19T14:34:44.812Z,15.70
2019-05-19T14:37:14.811Z,15.70
2019-05-19T14:39:44.913Z,15.80
2019-05-19T14:42:16.552Z,15.80
2019-05-19T14:44:46.666Z,15.80
2019-05-19T14:47:16.649Z,15.90
2019-05-19T14:49:46.614Z,15.80
2019-05-19T14:52:16.570Z,15.80
2019-05-19T14:54:46.570Z,15.90
2019-05-19T14:57:16.475Z,15.90
2019-05-19T14:59:46.597Z,15.90
2019-05-19T15:02:19.934Z,15.90
2019-05-19T15:04:49.366Z,15.90
2019-05-19T15:07:20.526Z,15.90
2019-05-19T15:09:50.614Z,15.90
2019-05-19T15:12:20.705Z,15.90
2019-05-19T15:14:50.667Z,15.90
2019-05-19T15:17:20.744Z,15.90
2019-05-19T15:19:50.783Z,15.90
2019-05-19T15:22:22.443Z,15.90
2019-05-19T15:24:52.486Z,15.90
2019-05-19T15:27:22.415Z,15.80
2019-05-19T15:29:53.597Z,15.90
2019-05-19T15:32:23.617Z,15.90
2019-05-19T15:34:53.694Z,15.80
2019-05-19T15:37:23.595Z,15.80
2019-05-19T15:39:53.624Z,15.70
2019-05-19T15:42:23.734Z,15.70
2019-05-19T15:44:53.672Z,15.70
2019-05-19T15:47:23.817Z,15.70
2019-05-19T15:49:53.742Z,15.70
2019-05-19T15:52:23.872Z,15.70
2019-05-19T15:54:53.950Z,15.80
2019-05-19T15:57:23.947Z,15.80
2019-05-19T15:59:53.942Z,15.80
2019-05-19T16:02:24.012Z,15.90
2019-05-19T16:04:54.098Z,16.00
2019-05-19T16:07:24.142Z,16.00
2019-05-19T16:09:54.259Z,16.00
2019-05-19T16:12:24.358Z,16.00
2019-05-19T16:14:54.390Z,16.00
2019-05-19T16:17:24.250Z,16.00
2019-05-19T16:19:54.210Z,16.00
2019-05-19T16:22:24.264Z,16.00
2019-05-19T16:24:54.191Z,16.00
2019-05-19T16:27:25.347Z,15.90
2019-05-19T16:29:56.542Z,15.90
2019-05-19T16:32:26.726Z,15.80
2019-05-19T16:34:57.683Z,15.80
2019-05-19T16:37:27.757Z,15.80
2019-05-19T16:39:57.819Z,15.80
2019-05-19T16:42:29.334Z,15.80
2019-05-19T16:44:59.517Z,15.80
2019-05-19T16:47:29.620Z,15.80
2019-05-19T16:49:59.622Z,15.90
2019-05-19T16:52:30.549Z,15.80
2019-05-19T16:55:19.467Z,15.70
2019-05-19T16:57:49.738Z,15.70
2019-05-19T17:00:20.498Z,15.70
2019-05-19T17:02:50.641Z,15.70
2019-05-19T17:05:21.919Z,15.70
2019-05-19T17:07:52.003Z,15.70
2019-05-19T17:10:22.199Z,15.70
2019-05-19T17:12:52.219Z,15.70
2019-05-19T17:15:22.538Z,15.70
2019-05-19T17:17:52.538Z,15.70
2019-05-19T17:20:22.670Z,15.70
2019-05-19T17:22:52.750Z,15.70
2019-05-19T17:25:23.390Z,15.70
2019-05-19T17:27:53.506Z,15.70
2019-05-19T17:30:23.874Z,15.70
2019-05-19T17:32:53.854Z,15.70
2019-05-19T17:35:23.926Z,15.70
2019-05-19T17:37:54.038Z,15.60
2019-05-19T17:40:24.248Z,15.50
2019-05-19T17:42:54.355Z,15.50
2019-05-19T17:45:24.431Z,15.50
2019-05-19T17:48:08.200Z,15.50
2019-05-19T17:50:33.762Z,15.50
2019-05-19T17:53:03.963Z,15.50
2019-05-19T17:55:35.523Z,15.50
2019-05-19T17:58:05.730Z,15.60
2019-05-19T18:00:40.766Z,15.60
2019-05-19T18:03:11.164Z,15.60
2019-05-19T18:05:41.255Z,15.60
2019-05-19T18:08:11.346Z,15.50
2019-05-19T18:10:41.386Z,15.60
2019-05-19T18:13:11.525Z,15.60
2019-05-19T18:15:41.626Z,15.60
2019-05-19T18:18:11.722Z,15.60
2019-05-19T18:20:41.753Z,15.60
2019-05-19T18:23:11.831Z,15.50
2019-05-19T18:25:41.864Z,15.50
2019-05-19T18:28:11.938Z,15.40
2019-05-19T18:30:42.034Z,15.30
2019-05-19T18:33:12.186Z,15.30
2019-05-19T18:35:42.294Z,15.30
2019-05-19T18:38:13.582Z,15.20
2019-05-19T18:40:43.658Z,15.20
2019-05-19T18:43:14.410Z,15.10
2019-05-19T18:45:44.421Z,15.10
2019-05-19T18:48:14.382Z,15.00
2019-05-19T18:50:44.561Z,15.00
2019-05-19T18:53:14.644Z,15.00
2019-05-19T18:55:44.587Z,14.90
2019-05-19T18:58:14.561Z,14.90
2019-05-19T19:00:44.759Z,14.90
2019-05-19T19:03:14.841Z,15.00
2019-05-19T19:05:44.974Z,14.90
2019-05-19T19:08:15.122Z,15.00
2019-05-19T19:10:47.267Z,15.00
2019-05-19T19:13:18.921Z,15.00
2019-05-19T19:15:50.012Z,15.00
2019-05-19T19:18:20.128Z,15.00
2019-05-19T19:20:50.251Z,15.00
2019-05-19T19:23:20.450Z,15.00
2019-05-19T19:25:50.548Z,14.90
2019-05-19T19:28:20.646Z,15.00
2019-05-19T19:30:50.714Z,14.90
2019-05-19T19:33:20.851Z,14.90
2019-05-19T19:35:50.979Z,15.00
2019-05-19T19:38:21.166Z,15.00
2019-05-19T19:40:54.097Z,15.00
2019-05-19T19:43:24.094Z,15.00
2019-05-19T19:45:55.252Z,15.00
2019-05-19T19:48:25.371Z,15.00
2019-05-19T19:50:55.512Z,15.00
2019-05-19T19:53:25.705Z,14.90
2019-05-19T19:55:55.655Z,14.80
2019-05-19T19:58:25.770Z,14.80
2019-05-19T20:00:55.766Z,14.70
2019-05-19T20:03:25.815Z,14.60
2019-05-19T20:05:55.947Z,14.60
2019-05-19T20:08:26.086Z,14.60
2019-05-19T20:10:56.127Z,14.60
2019-05-19T20:13:26.262Z,14.60
2019-05-19T20:15:56.234Z,14.60
2019-05-19T20:18:26.233Z,14.60
2019-05-19T20:20:56.338Z,14.50
2019-05-19T20:23:26.287Z,14.50
2019-05-19T20:25:56.319Z,14.50
2019-05-19T20:28:26.419Z,14.50
2019-05-19T20:30:56.417Z,14.40
2019-05-19T20:33:26.546Z,14.40
2019-05-19T20:35:56.458Z,14.30
2019-05-19T20:38:26.563Z,14.20
2019-05-19T20:40:56.603Z,14.20
2019-05-19T20:43:26.666Z,14.20
2019-05-19T20:45:56.697Z,14.20
2019-05-19T20:48:26.794Z,14.30
2019-05-19T20:50:56.759Z,14.40
2019-05-19T20:53:26.690Z,14.40
2019-05-19T20:55:56.653Z,14.40
2019-05-19T20:58:26.685Z,14.40
2019-05-19T21:00:56.722Z,14.40
2019-05-19T21:03:26.718Z,14.40
2019-05-19T21:05:56.682Z,14.30
2019-05-19T21:08:26.752Z,14.30
2019-05-19T21:10:56.722Z,14.40
2019-05-19T21:13:26.718Z,14.30
2019-05-19T21:15:56.694Z,14.30
2019-05-19T21:18:26.622Z,14.30
2019-05-19T21:20:56.748Z,14.30
2019-05-19T21:23:26.735Z,14.20
2019-05-19T21:25:56.697Z,14.30
2019-05-19T21:28:26.724Z,14.40
2019-05-19T21:31:05.254Z,14.40
2019-05-19T21:33:28.378Z,14.40
2019-05-19T21:35:58.382Z,14.50
2019-05-19T21:38:28.355Z,14.50
2019-05-19T21:40:58.479Z,14.50
2019-05-19T21:43:28.481Z,14.50
2019-05-19T21:45:58.518Z,14.40
2019-05-19T21:48:32.705Z,14.30
2019-05-19T21:51:03.113Z,14.30
2019-05-19T21:53:33.094Z,14.30
2019-05-19T21:56:03.697Z,14.40
2019-05-19T21:58:33.690Z,14.40
2019-05-19T22:01:03.862Z,14.30
2019-05-19T22:03:34.033Z,14.40
2019-05-19T22:06:04.370Z,14.40
2019-05-19T22:08:34.394Z,14.50
2019-05-19T22:11:04.750Z,14.50
2019-05-19T22:13:34.870Z,14.50
2019-05-19T22:16:12.709Z,14.40
2019-05-19T22:18:36.526Z,14.40
2019-05-19T22:21:06.624Z,14.40
2019-05-19T22:23:36.562Z,14.40
2019-05-19T22:26:06.593Z,14.40
2019-05-19T22:28:36.659Z,14.50
2019-05-19T22:31:06.699Z,14.50
2019-05-19T22:33:36.697Z,14.60
2019-05-19T22:36:06.718Z,14.60
2019-05-19T22:38:36.782Z,14.60
2019-05-19T22:41:06.750Z,14.60
2019-05-19T22:43:36.750Z,14.60
2019-05-19T22:46:06.834Z,14.60
2019-05-19T22:48:36.841Z,14.60
2019-05-19T22:51:06.866Z,14.60
2019-05-19T22:53:36.782Z,14.60
2019-05-19T22:56:06.819Z,14.60
2019-05-19T22:58:36.914Z,14.60
2019-05-19T23:01:06.990Z,14.60
2019-05-19T23:03:37.023Z,14.60
2019-05-19T23:06:07.086Z,14.60
2019-05-19T23:08:37.229Z,14.60
2019-05-19T23:11:07.222Z,14.60
2019-05-19T23:13:37.186Z,14.60
2019-05-19T23:16:07.286Z,14.60
2019-05-19T23:18:37.294Z,14.50
2019-05-19T23:21:07.323Z,14.50
2019-05-19T23:23:37.422Z,14.30
2019-05-19T23:26:07.490Z,14.10
2019-05-19T23:28:37.451Z,14.10
2019-05-19T23:31:07.402Z,14.20
2019-05-19T23:33:37.409Z,14.30
2019-05-19T23:36:07.443Z,14.40
2019-05-19T23:38:37.453Z,14.40
2019-05-19T23:41:07.522Z,14.50
2019-05-19T23:43:37.497Z,14.50
2019-05-19T23:46:07.483Z,14.50
2019-05-19T23:48:37.514Z,14.50
2019-05-19T23:51:07.554Z,14.50
2019-05-19T23:53:37.489Z,14.50
2019-05-19T23:56:07.571Z,14.50
2019-05-19T23:58:37.593Z,14.50
